Sd416 Nippon — SKPF — position and weather

sailwx.info

Track history (hours):
 
Tides and Currents Weather Stations Pressure Air Temp Water Temp Dewpoint Dewpoint Depression Visibility Wind Speed Wind Dir Waves Ship Positions

Sd416 Nippon

Last reported at 2015-May-05 02:32 UTC. Time now 2015-May-05 05:11 UTC.
Position N 58°38' E 010°23'.

Length 17 m; draft 2.5 m.

Type: Fishing. MMSI: 266163000.

Date/timePositionNaut miles runAvg speedWind from/ knotsBaromVisibWave heightAir tempDewpointWater temp
2015-May-05 02:32N 58°38' E 010°23'1 1.4
2015-May-05 01:33N 58°37' E 010°24'1 1.4
2015-May-05 00:33N 58°36' E 010°25'1 1.4
2015-May-04 23:33N 58°35' E 010°28'1 1.4
2015-May-04 22:33N 58°34' E 010°30'2 1.8
2015-May-04 21:19N 58°36' E 010°33'22 8.0
2015-May-04 18:31N 58°55' E 010°56'7 1.0
2015-May-04 11:23N 58°49' E 011°05'6 1.0
2015-May-04 05:21N 58°55' E 011°04'1 1.3
2015-May-04 04:29N 58°56' E 011°03'1 1.3
2015-May-04 03:33N 58°57' E 011°03'1 0.8
2015-May-04 02:29N 58°58' E 011°03'  
2015-Apr-28 06:33N 58°56' E 011°10'0 0.0
2015-Apr-28 05:32N 58°56' E 011°10'0 0.0
2015-Apr-28 04:33N 58°56' E 011°10'0 0.0
2015-Apr-28 03:33N 58°56' E 011°10'0 0.0
2015-Apr-28 02:13N 58°56' E 011°10'0 0.0
2015-Apr-28 01:33N 58°56' E 011°10'0 0.0
2015-Apr-28 00:28N 58°56' E 011°10'0 0.0
2015-Apr-27 23:33N 58°56' E 011°10'0 0.0
2015-Apr-27 12:26N 58°56' E 011°10'0 0.0
2015-Apr-27 11:28N 58°56' E 011°10'0 0.0
2015-Apr-27 10:32N 58°56' E 011°10'0 0.0
2015-Apr-27 09:33N 58°56' E 011°10'0 0.0
2015-Apr-27 08:33N 58°56' E 011°10'0 0.0
2015-Apr-27 07:33N 58°56' E 011°10'0 0.0
2015-Apr-27 06:33N 58°56' E 011°10'0 0.0
2015-Apr-27 05:33N 58°56' E 011°10'0 0.0
2015-Apr-27 04:32N 58°56' E 011°10'0 0.0
2015-Apr-27 03:31N 58°56' E 011°10'0 0.0
2015-Apr-27 02:33N 58°56' E 011°10'0 0.0
2015-Apr-27 01:31N 58°56' E 011°10'0 0.0
2015-Apr-27 00:33N 58°56' E 011°10'0 0.0
2015-Apr-26 23:33N 58°56' E 011°10'0 0.0
2015-Apr-26 22:33N 58°56' E 011°10'0 0.0
2015-Apr-26 21:33N 58°56' E 011°10'0 0.0
2015-Apr-26 20:33N 58°56' E 011°10'0 0.0
2015-Apr-26 19:30N 58°56' E 011°10'0 0.0
2015-Apr-26 18:31N 58°56' E 011°10'0 0.0
2015-Apr-26 17:33N 58°56' E 011°10'0 0.0
2015-Apr-26 16:20N 58°56' E 011°10'0 0.0
2015-Apr-26 15:13N 58°56' E 011°10'0 0.0
2015-Apr-26 14:30N 58°56' E 011°10'0 0.0
2015-Apr-26 13:33N 58°56' E 011°10'0 0.0
2015-Apr-26 12:20N 58°56' E 011°10'0 0.0
2015-Apr-26 08:18N 58°56' E 011°10'0 0.0
2015-Apr-26 05:33N 58°56' E 011°10'0 0.0
2015-Apr-26 04:31N 58°56' E 011°10'0 0.0
2015-Apr-26 03:05N 58°56' E 011°10'0 0.0
2015-Apr-26 01:29N 58°56' E 011°10'0 0.0
2015-Apr-26 00:33N 58°56' E 011°10'0 0.0
2015-Apr-25 23:32N 58°56' E 011°10'0 0.0
2015-Apr-25 22:33N 58°56' E 011°10'0 0.0
2015-Apr-25 21:18N 58°56' E 011°10'0 0.0
2015-Apr-25 20:07N 58°56' E 011°10'0 0.0
2015-Apr-25 19:24N 58°56' E 011°10'0 0.0
2015-Apr-25 18:13N 58°56' E 011°10'0 0.0
2015-Apr-25 17:15N 58°56' E 011°10'0 0.0
2015-Apr-25 14:21N 58°56' E 011°10'0 0.0
2015-Apr-25 06:23N 58°56' E 011°10'0 0.0
2015-Apr-25 05:26N 58°56' E 011°10'0 0.0
2015-Apr-25 04:33N 58°56' E 011°10'0 0.0
2015-Apr-25 03:31N 58°56' E 011°10'0 0.0
2015-Apr-25 02:33N 58°56' E 011°10'  
Track history (hours):
 
Tides and Currents Weather Stations Pressure Air Temp Water Temp Dewpoint Dewpoint Depression Visibility Wind Speed Wind Dir Waves Ship Positions

Sd416 Nippon

Last reported at 2015-May-05 02:32 UTC. Time now 2015-May-05 05:11 UTC.
Position N 58°38' E 010°23'.

Length 17 m; draft 2.5 m.

Type: Fishing. MMSI: 266163000.

Date/timePositionNaut miles runAvg speedWind from/ knotsBaromVisibWave heightAir tempDewpointWater temp
2015-May-05 02:32N 58°38' E 010°23'1 1.4
2015-May-05 01:33N 58°37' E 010°24'1 1.4
2015-May-05 00:33N 58°36' E 010°25'1 1.4
2015-May-04 23:33N 58°35' E 010°28'1 1.4
2015-May-04 22:33N 58°34' E 010°30'2 1.8
2015-May-04 21:19N 58°36' E 010°33'22 8.0
2015-May-04 18:31N 58°55' E 010°56'7 1.0
2015-May-04 11:23N 58°49' E 011°05'6 1.0
2015-May-04 05:21N 58°55' E 011°04'1 1.3
2015-May-04 04:29N 58°56' E 011°03'1 1.3
2015-May-04 03:33N 58°57' E 011°03'1 0.8
2015-May-04 02:29N 58°58' E 011°03'  
2015-Apr-28 06:33N 58°56' E 011°10'0 0.0
2015-Apr-28 05:32N 58°56' E 011°10'0 0.0
2015-Apr-28 04:33N 58°56' E 011°10'0 0.0
2015-Apr-28 03:33N 58°56' E 011°10'0 0.0
2015-Apr-28 02:13N 58°56' E 011°10'0 0.0
2015-Apr-28 01:33N 58°56' E 011°10'0 0.0
2015-Apr-28 00:28N 58°56' E 011°10'0 0.0
2015-Apr-27 23:33N 58°56' E 011°10'0 0.0
2015-Apr-27 12:26N 58°56' E 011°10'0 0.0
2015-Apr-27 11:28N 58°56' E 011°10'0 0.0
2015-Apr-27 10:32N 58°56' E 011°10'0 0.0
2015-Apr-27 09:33N 58°56' E 011°10'0 0.0
2015-Apr-27 08:33N 58°56' E 011°10'0 0.0
2015-Apr-27 07:33N 58°56' E 011°10'0 0.0
2015-Apr-27 06:33N 58°56' E 011°10'0 0.0
2015-Apr-27 05:33N 58°56' E 011°10'0 0.0
2015-Apr-27 04:32N 58°56' E 011°10'0 0.0
2015-Apr-27 03:31N 58°56' E 011°10'0 0.0
2015-Apr-27 02:33N 58°56' E 011°10'0 0.0
2015-Apr-27 01:31N 58°56' E 011°10'0 0.0
2015-Apr-27 00:33N 58°56' E 011°10'0 0.0
2015-Apr-26 23:33N 58°56' E 011°10'0 0.0
2015-Apr-26 22:33N 58°56' E 011°10'0 0.0
2015-Apr-26 21:33N 58°56' E 011°10'0 0.0
2015-Apr-26 20:33N 58°56' E 011°10'0 0.0
2015-Apr-26 19:30N 58°56' E 011°10'0 0.0
2015-Apr-26 18:31N 58°56' E 011°10'0 0.0
2015-Apr-26 17:33N 58°56' E 011°10'0 0.0
2015-Apr-26 16:20N 58°56' E 011°10'0 0.0
2015-Apr-26 15:13N 58°56' E 011°10'0 0.0
2015-Apr-26 14:30N 58°56' E 011°10'0 0.0
2015-Apr-26 13:33N 58°56' E 011°10'0 0.0
2015-Apr-26 12:20N 58°56' E 011°10'0 0.0
2015-Apr-26 08:18N 58°56' E 011°10'0 0.0
2015-Apr-26 05:33N 58°56' E 011°10'0 0.0
2015-Apr-26 04:31N 58°56' E 011°10'0 0.0
2015-Apr-26 03:05N 58°56' E 011°10'0 0.0
2015-Apr-26 01:29N 58°56' E 011°10'0 0.0
2015-Apr-26 00:33N 58°56' E 011°10'0 0.0
2015-Apr-25 23:32N 58°56' E 011°10'0 0.0
2015-Apr-25 22:33N 58°56' E 011°10'0 0.0
2015-Apr-25 21:18N 58°56' E 011°10'0 0.0
2015-Apr-25 20:07N 58°56' E 011°10'0 0.0
2015-Apr-25 19:24N 58°56' E 011°10'0 0.0
2015-Apr-25 18:13N 58°56' E 011°10'0 0.0
2015-Apr-25 17:15N 58°56' E 011°10'0 0.0
2015-Apr-25 14:21N 58°56' E 011°10'0 0.0
2015-Apr-25 06:23N 58°56' E 011°10'0 0.0
2015-Apr-25 05:26N 58°56' E 011°10'0 0.0
2015-Apr-25 04:33N 58°56' E 011°10'0 0.0
2015-Apr-25 03:31N 58°56' E 011°10'0 0.0
2015-Apr-25 02:33N 58°56' E 011°10'  

Dump ship's entire track history